createdAt,value
2018-11-23T00:02:23.388Z,101254.30
2018-11-23T00:04:52.436Z,101250.14
2018-11-23T00:07:21.751Z,101251.67
2018-11-23T00:09:51.133Z,101242.11
2018-11-23T00:12:20.263Z,101240.66
2018-11-23T00:14:49.293Z,101249.78
2018-11-23T00:17:18.336Z,101250.47
2018-11-23T00:19:47.376Z,101254.70
2018-11-23T00:22:16.380Z,101262.25
2018-11-23T00:24:45.477Z,101258.13
2018-11-23T00:27:14.560Z,101254.91
2018-11-23T00:29:43.604Z,101248.42
2018-11-23T00:32:12.762Z,101248.19
2018-11-23T00:34:41.804Z,101248.77
2018-11-23T00:37:10.892Z,101250.13
2018-11-23T00:39:40.095Z,101246.14
2018-11-23T00:42:09.131Z,101243.44
2018-11-23T00:44:38.184Z,101251.55
2018-11-23T00:47:07.354Z,101236.95
2018-11-23T00:49:36.501Z,101235.91
2018-11-23T00:52:06.033Z,101235.91
2018-11-23T00:54:35.151Z,101232.45
2018-11-23T00:57:04.181Z,101221.91
2018-11-23T00:59:33.269Z,101222.19
2018-11-23T01:02:05.000Z,101222.19
2018-11-23T01:04:35.234Z,101221.42
2018-11-23T01:07:05.011Z,101214.97
2018-11-23T01:09:34.178Z,101212.55
2018-11-23T01:12:03.259Z,101213.41
2018-11-23T01:14:32.289Z,101208.59
2018-11-23T01:17:01.352Z,101197.00
2018-11-23T01:19:30.414Z,101195.20
2018-11-23T01:21:59.568Z,101195.75
2018-11-23T01:24:28.557Z,101191.76
2018-11-23T01:26:57.637Z,101183.95
2018-11-23T01:29:26.809Z,101189.39
2018-11-23T01:31:55.910Z,101187.00
2018-11-23T01:34:24.938Z,101188.63
2018-11-23T01:36:54.016Z,101183.80
2018-11-23T01:39:23.068Z,101193.27
2018-11-23T01:41:52.076Z,101189.20
2018-11-23T01:44:21.205Z,101184.38
2018-11-23T01:46:50.214Z,101188.19
2018-11-23T01:49:19.661Z,101187.09
2018-11-23T01:51:48.722Z,101181.44
2018-11-23T01:54:17.786Z,101193.88
2018-11-23T01:56:47.164Z,101189.23
2018-11-23T01:59:16.182Z,101187.67
2018-11-23T02:01:46.001Z,101186.01
2018-11-23T02:04:15.129Z,101189.02
2018-11-23T02:06:44.474Z,101191.73
2018-11-23T02:09:13.512Z,101187.95
2018-11-23T02:11:42.581Z,101183.37
2018-11-23T02:14:11.607Z,101180.42
2018-11-23T02:16:41.185Z,101170.42
2018-11-23T02:19:10.205Z,101179.13
2018-11-23T02:21:39.202Z,101176.97
2018-11-23T02:24:08.209Z,101173.16
2018-11-23T02:26:37.331Z,101171.56
2018-11-23T02:29:06.390Z,101176.50
2018-11-23T02:31:37.751Z,101166.79
2018-11-23T02:34:08.033Z,101160.61
2018-11-23T02:36:37.061Z,101161.98
2018-11-23T02:39:08.043Z,101169.06
2018-11-23T02:41:37.503Z,101162.05
2018-11-23T02:44:06.609Z,101163.68
2018-11-23T02:46:35.669Z,101165.61
2018-11-23T02:49:04.829Z,101159.16
2018-11-23T02:51:33.866Z,101156.72
2018-11-23T02:54:02.900Z,101159.48
2018-11-23T02:56:49.669Z,101157.88
2018-11-23T02:59:22.077Z,101155.45
2018-11-23T03:01:47.899Z,101158.47
2018-11-23T03:04:16.892Z,101153.33
2018-11-23T03:06:46.778Z,101156.34
2018-11-23T03:09:15.834Z,101149.58
2018-11-23T03:11:44.830Z,101148.50
2018-11-23T03:14:13.866Z,101147.14
2018-11-23T03:16:42.852Z,101140.10
2018-11-23T03:19:11.876Z,101136.84
2018-11-23T03:21:40.916Z,101133.86
2018-11-23T03:24:09.943Z,101133.03
2018-11-23T03:26:39.072Z,101125.99
2018-11-23T03:29:08.985Z,101124.64
2018-11-23T03:31:38.001Z,101113.04
2018-11-23T03:34:07.069Z,101123.86
2018-11-23T03:36:36.119Z,101114.97
2018-11-23T03:39:07.296Z,101118.20
2018-11-23T03:41:36.413Z,101136.62
2018-11-23T03:44:06.227Z,101114.97
2018-11-23T03:46:35.290Z,101109.56
2018-11-23T03:49:04.630Z,101109.25
2018-11-23T03:51:33.697Z,101116.55
2018-11-23T03:54:02.711Z,101107.33
2018-11-23T03:56:33.450Z,101117.09
2018-11-23T03:59:02.514Z,101110.61
2018-11-23T04:01:32.095Z,101112.27
2018-11-23T04:04:01.093Z,101114.20
2018-11-23T04:06:30.214Z,101116.34
2018-11-23T04:08:59.235Z,101106.62
2018-11-23T04:11:28.232Z,101115.88
2018-11-23T04:13:58.407Z,101116.98
2018-11-23T04:16:27.550Z,101112.92
2018-11-23T04:18:56.656Z,101113.20
2018-11-23T04:21:25.695Z,101108.09
2018-11-23T04:23:54.720Z,101108.09
2018-11-23T04:26:24.837Z,101108.36
2018-11-23T04:28:52.947Z,101114.60
2018-11-23T04:31:21.978Z,101108.36
2018-11-23T04:33:50.998Z,101116.48
2018-11-23T04:36:20.020Z,101115.44
2018-11-23T04:38:49.085Z,101114.87
2018-11-23T04:41:18.187Z,101108.41
2018-11-23T04:43:47.233Z,101102.75
2018-11-23T04:46:16.379Z,101106.28
2018-11-23T04:48:45.372Z,101101.42
2018-11-23T04:51:14.372Z,101099.84
2018-11-23T04:53:43.490Z,101092.25
2018-11-23T04:56:12.490Z,101090.89
2018-11-23T04:58:41.649Z,101096.05
2018-11-23T05:01:10.690Z,101080.89
2018-11-23T05:03:39.856Z,101086.85
2018-11-23T05:06:08.945Z,101086.38
2018-11-23T05:08:37.968Z,101087.73
2018-11-23T05:11:07.062Z,101083.67
2018-11-23T05:13:36.143Z,101088.26
2018-11-23T05:16:05.444Z,101078.20
2018-11-23T05:18:34.517Z,101084.95
2018-11-23T05:21:03.638Z,101082.25
2018-11-23T05:23:32.723Z,101085.17
2018-11-23T05:26:01.806Z,101083.28
2018-11-23T05:28:31.125Z,101082.97
2018-11-23T05:31:00.152Z,101076.73
2018-11-23T05:33:29.146Z,101071.30
2018-11-23T05:35:58.172Z,101068.84
2018-11-23T05:38:27.302Z,101068.53
2018-11-23T05:40:56.413Z,101063.42
2018-11-23T05:43:25.437Z,101061.30
2018-11-23T05:45:54.494Z,101063.20
2018-11-23T05:48:26.926Z,101061.37
2018-11-23T05:50:52.700Z,101058.68
2018-11-23T05:53:21.714Z,101062.80
2018-11-23T05:55:51.197Z,101056.08
2018-11-23T05:58:20.479Z,101062.08
2018-11-23T06:00:49.523Z,101066.73
2018-11-23T06:03:18.590Z,101052.73
2018-11-23T06:05:47.628Z,101055.75
2018-11-23T06:08:16.644Z,101054.40
2018-11-23T06:10:45.702Z,101050.61
2018-11-23T06:13:14.743Z,101057.68
2018-11-23T06:15:44.709Z,101051.48
2018-11-23T06:18:12.963Z,101056.65
2018-11-23T06:20:43.032Z,101053.41
2018-11-23T06:23:12.053Z,101053.11
2018-11-23T06:25:43.674Z,101053.11
2018-11-23T06:28:12.696Z,101051.18
2018-11-23T06:30:42.642Z,101041.17
2018-11-23T06:33:29.494Z,101045.51
2018-11-23T06:35:58.548Z,101042.33
2018-11-23T06:38:27.567Z,101051.02
2018-11-23T06:40:56.577Z,101038.58
2018-11-23T06:43:25.759Z,101043.48
2018-11-23T06:45:54.913Z,101048.13
2018-11-23T06:48:23.958Z,101035.16
2018-11-23T06:50:53.434Z,101031.10
2018-11-23T06:53:22.564Z,101041.98
2018-11-23T06:55:51.708Z,101038.75
2018-11-23T06:58:20.833Z,101037.66
2018-11-23T07:00:49.959Z,101046.05
2018-11-23T07:03:19.024Z,101051.47
2018-11-23T07:05:48.162Z,101050.64
2018-11-23T07:08:17.338Z,101056.61
2018-11-23T07:10:46.380Z,101048.48
2018-11-23T07:13:15.436Z,101047.41
2018-11-23T07:15:44.492Z,101047.70
2018-11-23T07:18:13.607Z,101058.84
2018-11-23T07:20:42.778Z,101055.05
2018-11-23T07:23:11.932Z,101048.27
2018-11-23T07:25:41.021Z,101045.30
2018-11-23T07:28:15.460Z,101061.83
2018-11-23T07:30:40.011Z,101054.00
2018-11-23T07:33:09.922Z,101053.74
2018-11-23T07:35:39.127Z,101050.77
2018-11-23T07:38:08.291Z,101061.91
2018-11-23T07:40:49.611Z,101057.59
2018-11-23T07:43:18.791Z,101054.90
2018-11-23T07:45:47.961Z,101056.83
2018-11-23T07:48:17.102Z,101057.40
2018-11-23T07:50:47.217Z,101055.53
2018-11-23T07:53:16.289Z,101068.59
2018-11-23T07:55:45.388Z,101066.69
2018-11-23T07:58:14.549Z,101067.00
2018-11-23T08:00:43.849Z,101066.22
2018-11-23T08:03:12.931Z,101071.94
2018-11-23T08:05:42.025Z,101075.43
2018-11-23T08:08:11.043Z,101080.55
2018-11-23T08:10:39.101Z,101084.34
2018-11-23T08:13:08.205Z,101084.08
2018-11-23T08:15:37.303Z,101083.77
2018-11-23T08:18:06.605Z,101089.19
2018-11-23T08:20:36.281Z,101086.99
2018-11-23T08:23:05.383Z,101091.84
2018-11-23T08:25:34.434Z,101096.69
2018-11-23T08:28:03.475Z,101099.91
2018-11-23T08:30:32.529Z,101097.73
2018-11-23T08:33:01.540Z,101099.86
2018-11-23T08:35:30.615Z,101102.05
2018-11-23T08:38:01.017Z,101099.34
2018-11-23T08:40:30.027Z,101099.61
2018-11-23T08:42:59.074Z,101098.30
2018-11-23T08:45:28.467Z,101098.34
2018-11-23T08:47:57.713Z,101103.20
2018-11-23T08:50:29.183Z,101109.45
2018-11-23T08:52:58.459Z,101103.77
2018-11-23T08:55:28.074Z,101101.85
2018-11-23T08:57:57.278Z,101103.77
2018-11-23T09:00:28.558Z,101104.30
2018-11-23T09:02:59.044Z,101103.20
2018-11-23T09:05:28.550Z,101097.27
2018-11-23T09:07:58.727Z,101098.09
2018-11-23T09:10:29.407Z,101097.79
2018-11-23T09:13:01.264Z,101100.75
2018-11-23T09:15:30.567Z,101102.89
2018-11-23T09:17:59.968Z,101093.14
2018-11-23T09:20:29.175Z,101093.14
2018-11-23T09:22:58.467Z,101092.56
2018-11-23T09:25:27.669Z,101079.55
2018-11-23T09:27:56.989Z,101077.41
2018-11-23T09:30:26.969Z,101071.47
2018-11-23T09:32:56.684Z,101079.92
2018-11-23T09:35:26.388Z,101083.50
2018-11-23T09:37:55.586Z,101082.98
2018-11-23T09:40:27.932Z,101074.64
2018-11-23T09:42:57.319Z,101084.97
2018-11-23T09:45:27.829Z,101084.23
2018-11-23T09:47:59.478Z,101091.59
2018-11-23T09:50:29.224Z,101088.14
2018-11-23T09:53:00.919Z,101076.78
2018-11-23T09:55:31.179Z,101099.31
2018-11-23T09:58:00.627Z,101092.57
2018-11-23T10:00:31.872Z,101093.41
2018-11-23T10:03:01.504Z,101100.76
2018-11-23T10:05:32.058Z,101102.16
2018-11-23T10:08:02.658Z,101100.24
2018-11-23T10:10:32.509Z,101102.43
2018-11-23T10:13:02.706Z,101102.43
2018-11-23T10:15:32.701Z,101101.08
2018-11-23T10:18:02.261Z,101110.30
2018-11-23T10:20:32.505Z,101100.81
2018-11-23T10:23:01.903Z,101103.83
2018-11-23T10:25:32.391Z,101104.39
2018-11-23T10:28:01.683Z,101104.14
2018-11-23T10:30:32.603Z,101098.16
2018-11-23T10:33:03.075Z,101096.00
2018-11-23T10:35:32.529Z,101093.86
2018-11-23T10:38:04.062Z,101093.30
2018-11-23T10:40:39.341Z,101083.54
2018-11-23T10:43:08.886Z,101082.45
2018-11-23T10:45:38.414Z,101086.82
2018-11-23T10:48:09.993Z,101081.39
2018-11-23T10:50:40.829Z,101074.61
2018-11-23T10:53:10.381Z,101061.05
2018-11-23T10:55:40.757Z,101064.59
2018-11-23T10:58:13.830Z,101067.84
2018-11-23T11:01:01.165Z,101047.27
2018-11-23T11:03:33.467Z,101048.10
2018-11-23T11:06:11.059Z,101043.29
2018-11-23T11:08:41.902Z,101040.13
2018-11-23T11:11:13.803Z,101036.92
2018-11-23T11:13:42.292Z,101029.69
2018-11-23T11:16:13.823Z,101030.84
2018-11-23T11:18:43.202Z,101019.80
2018-11-23T11:21:12.859Z,101018.20
2018-11-23T11:23:42.007Z,101012.33
2018-11-23T11:26:11.507Z,101016.48
2018-11-23T11:28:41.663Z,101012.19
2018-11-23T11:31:12.318Z,100992.42
2018-11-23T11:33:41.833Z,100994.65
2018-11-23T11:36:11.170Z,100987.34
2018-11-23T11:38:40.426Z,100982.75
2018-11-23T11:41:10.094Z,100981.44
2018-11-23T11:43:48.691Z,100977.62
2018-11-23T11:46:17.995Z,100974.65
2018-11-23T11:48:48.793Z,100979.28
2018-11-23T11:51:19.627Z,100977.92
2018-11-23T11:53:50.134Z,100974.37
2018-11-23T11:56:20.296Z,100976.84
2018-11-23T11:58:49.495Z,100970.59
2018-11-23T12:01:19.745Z,100963.49
2018-11-23T12:03:49.284Z,100967.05
2018-11-23T12:06:18.923Z,100957.24
2018-11-23T12:08:48.126Z,100959.96
2018-11-23T12:11:17.484Z,100956.44
2018-11-23T12:13:46.868Z,100947.45
2018-11-23T12:16:17.423Z,100953.98
2018-11-23T12:18:47.516Z,100948.28
2018-11-23T12:21:17.211Z,100943.38
2018-11-23T12:23:46.806Z,100943.13
2018-11-23T12:26:16.077Z,100937.41
2018-11-23T12:28:45.213Z,100930.35
2018-11-23T12:31:14.301Z,100928.16
2018-11-23T12:33:43.696Z,100923.55
2018-11-23T12:36:13.050Z,100929.55
2018-11-23T12:38:43.167Z,100916.52
2018-11-23T12:41:11.854Z,100921.41
2018-11-23T12:43:40.983Z,100915.71
2018-11-23T12:46:10.246Z,100903.75
2018-11-23T12:48:39.412Z,100907.00
2018-11-23T12:51:09.296Z,100907.84
2018-11-23T12:53:39.192Z,100897.23
2018-11-23T12:56:09.460Z,100892.59
2018-11-23T12:58:40.407Z,100889.88
2018-11-23T13:01:10.759Z,100888.53
2018-11-23T13:03:40.038Z,100893.71
2018-11-23T13:06:10.857Z,100890.97
2018-11-23T13:08:40.169Z,100888.80
2018-11-23T13:11:09.411Z,100886.89
2018-11-23T13:13:39.904Z,100885.55
2018-11-23T13:16:09.364Z,100892.08
2018-11-23T13:18:38.583Z,100887.17
2018-11-23T13:21:08.551Z,100894.27
2018-11-23T13:23:37.829Z,100880.09
2018-11-23T13:26:07.304Z,100885.00
2018-11-23T13:28:36.654Z,100877.94
2018-11-23T13:31:05.818Z,100874.40
2018-11-23T13:33:35.878Z,100873.84
2018-11-23T13:36:05.482Z,100872.74
2018-11-23T13:38:34.625Z,100873.28
2018-11-23T13:41:04.231Z,100877.09
2018-11-23T13:43:33.559Z,100869.47
2018-11-23T13:46:03.814Z,100870.02
2018-11-23T13:48:33.033Z,100864.03
2018-11-23T13:51:22.279Z,100874.94
2018-11-23T13:56:31.520Z,100885.55
2018-11-23T13:59:00.571Z,100885.00
2018-11-23T14:01:30.647Z,100885.55
2018-11-23T14:04:04.048Z,100881.48
2018-11-23T14:06:33.179Z,100877.09
2018-11-23T14:09:02.500Z,100876.03
2018-11-23T14:11:31.615Z,100871.39
2018-11-23T14:14:00.712Z,100877.92
2018-11-23T14:16:30.597Z,100876.58
2018-11-23T14:18:59.764Z,100873.30
2018-11-23T14:21:29.008Z,100850.99
2018-11-23T14:23:58.087Z,100857.23
2018-11-23T14:26:28.802Z,100851.80
2018-11-23T14:28:58.001Z,100846.35
2018-11-23T14:31:27.478Z,100855.33
2018-11-23T14:33:56.805Z,100854.53
2018-11-23T14:36:25.974Z,100860.50
2018-11-23T14:38:55.219Z,100856.72
2018-11-23T14:41:24.710Z,100865.95
2018-11-23T14:43:53.869Z,100866.23
2018-11-23T14:46:23.500Z,100864.32
2018-11-23T14:48:52.646Z,100867.32
2018-11-23T14:51:21.930Z,100877.67
2018-11-23T14:53:51.199Z,100869.22
2018-11-23T14:56:20.500Z,100873.02
2018-11-23T14:58:49.505Z,100880.39
2018-11-23T15:01:19.773Z,100871.68
2018-11-23T15:03:48.882Z,100876.58
2018-11-23T15:06:29.434Z,100870.30
2018-11-23T15:08:58.680Z,100878.19
2018-11-23T15:11:27.795Z,100883.09
2018-11-23T15:13:57.323Z,100889.91
2018-11-23T15:16:26.496Z,100885.54
2018-11-23T15:18:55.567Z,100883.08
2018-11-23T15:21:25.131Z,100884.19
2018-11-23T15:23:54.316Z,100888.78
2018-11-23T15:26:23.367Z,100884.44
2018-11-23T15:28:52.530Z,100881.45
2018-11-23T15:31:21.617Z,100887.13
2018-11-23T15:33:50.853Z,100877.91
2018-11-23T15:36:19.941Z,100869.45
2018-11-23T15:38:49.169Z,100872.17
2018-11-23T15:41:18.318Z,100864.84
2018-11-23T15:43:47.433Z,100868.09
2018-11-23T15:46:21.079Z,100859.15
2018-11-23T15:48:50.237Z,100866.48
2018-11-23T15:51:19.419Z,100856.67
2018-11-23T15:53:48.516Z,100860.49
2018-11-23T15:56:20.222Z,100868.64
2018-11-23T15:58:49.637Z,100872.44
2018-11-23T16:01:18.751Z,100882.23
2018-11-23T16:03:48.402Z,100874.08
2018-11-23T16:06:18.366Z,100870.83
2018-11-23T16:08:48.570Z,100871.91
2018-11-23T16:11:17.749Z,100879.53
2018-11-23T16:13:47.288Z,100875.45
2018-11-23T16:16:16.396Z,100891.22
2018-11-23T16:18:45.477Z,100871.36
2018-11-23T16:21:14.588Z,100875.45
2018-11-23T16:23:43.694Z,100868.91
2018-11-23T16:26:12.811Z,100866.99
2018-11-23T16:28:42.058Z,100871.07
2018-11-23T16:31:11.186Z,100865.91
2018-11-23T16:33:40.357Z,100865.38
2018-11-23T16:36:09.438Z,100860.75
2018-11-23T16:38:38.529Z,100863.20
2018-11-23T16:41:08.565Z,100859.92
2018-11-23T16:43:38.435Z,100858.84
2018-11-23T16:46:08.595Z,100860.20
2018-11-23T16:48:37.621Z,100852.05
2018-11-23T16:51:07.167Z,100857.48
2018-11-23T16:53:36.391Z,100852.33
2018-11-23T16:56:05.636Z,100853.40
2018-11-23T16:58:34.688Z,100852.05
2018-11-23T17:01:03.751Z,100849.59
2018-11-23T17:03:32.855Z,100852.06
2018-11-23T17:06:01.980Z,100852.59
2018-11-23T17:08:31.112Z,100852.33
2018-11-23T17:11:00.176Z,100857.20
2018-11-23T17:13:29.279Z,100852.33
2018-11-23T17:15:58.504Z,100844.42
2018-11-23T17:18:27.541Z,100848.79
2018-11-23T17:20:59.212Z,100849.32
2018-11-23T17:23:26.724Z,100847.16
2018-11-23T17:25:56.367Z,100843.88
2018-11-23T17:28:25.566Z,100841.98
2018-11-23T17:30:54.563Z,100835.16
2018-11-23T17:33:23.659Z,100846.30
2018-11-23T17:35:52.832Z,100831.38
2018-11-23T17:38:21.929Z,100840.04
2018-11-23T17:40:51.047Z,100838.70
2018-11-23T17:43:20.116Z,100852.50
2018-11-23T17:45:49.179Z,100843.54
2018-11-23T17:48:18.346Z,100848.95
2018-11-23T17:50:47.474Z,100856.02
2018-11-23T17:53:16.584Z,100857.91
2018-11-23T17:55:45.899Z,100853.00
2018-11-23T17:58:14.910Z,100855.46
2018-11-23T18:00:44.044Z,100858.45
2018-11-23T18:03:13.058Z,100850.57
2018-11-23T18:05:42.058Z,100857.36
2018-11-23T18:08:11.035Z,100859.23
2018-11-23T18:10:40.684Z,100857.87
2018-11-23T18:13:09.759Z,100854.36
2018-11-23T18:15:38.949Z,100858.67
2018-11-23T18:18:08.245Z,100855.44
2018-11-23T18:20:37.242Z,100867.09
2018-11-23T18:23:07.174Z,100858.16
2018-11-23T18:25:37.926Z,100859.52
2018-11-23T18:28:07.871Z,100847.30
2018-11-23T18:30:40.774Z,100851.63
2018-11-23T18:33:10.054Z,100848.91
2018-11-23T18:35:39.733Z,100840.50
2018-11-23T18:38:09.931Z,100845.94
2018-11-23T18:40:39.153Z,100851.36
2018-11-23T18:43:08.396Z,100847.00
2018-11-23T18:45:38.214Z,100850.00
2018-11-23T18:48:07.278Z,100841.86
2018-11-23T18:50:36.984Z,100840.50
2018-11-23T18:53:06.468Z,100843.48
2018-11-23T18:55:35.805Z,100833.44
2018-11-23T18:58:05.086Z,100836.95
2018-11-23T19:00:34.704Z,100838.60
2018-11-23T19:03:04.107Z,100841.59
2018-11-23T19:05:33.247Z,100849.47
2018-11-23T19:08:03.424Z,100847.02
2018-11-23T19:10:32.548Z,100849.47
2018-11-23T19:13:01.750Z,100850.81
2018-11-23T19:15:30.981Z,100847.55
2018-11-23T19:18:01.322Z,100854.32
2018-11-23T19:20:31.263Z,100849.17
2018-11-23T19:23:00.923Z,100849.15
2018-11-23T19:25:30.129Z,100839.09
2018-11-23T19:28:01.036Z,100833.64
2018-11-23T19:30:30.214Z,100839.62
2018-11-23T19:32:59.704Z,100832.27
2018-11-23T19:35:28.763Z,100827.64
2018-11-23T19:37:57.955Z,100826.82
2018-11-23T19:40:26.968Z,100824.91
2018-11-23T19:42:56.117Z,100832.23
2018-11-23T19:45:25.123Z,100818.39
2018-11-23T19:47:54.203Z,100820.28
2018-11-23T19:50:23.230Z,100819.75
2018-11-23T19:52:52.461Z,100823.56
2018-11-23T19:55:21.509Z,100817.58
2018-11-23T19:57:50.578Z,100821.91
2018-11-23T20:00:25.964Z,100826.25
2018-11-23T20:02:55.122Z,100819.44
2018-11-23T20:05:24.515Z,100818.89
2018-11-23T20:07:56.248Z,100818.61
2018-11-23T20:10:25.914Z,100815.08
2018-11-23T20:12:57.110Z,100799.30
2018-11-23T20:15:26.311Z,100797.13
2018-11-23T20:17:55.525Z,100796.83
2018-11-23T20:20:24.623Z,100794.67
2018-11-23T20:22:53.851Z,100791.41
2018-11-23T20:25:22.923Z,100791.38
2018-11-23T20:27:52.931Z,100790.03
2018-11-23T20:30:22.561Z,100783.48
2018-11-23T20:32:51.629Z,100783.78
2018-11-23T20:35:21.887Z,100769.66
2018-11-23T20:37:51.665Z,100771.30
2018-11-23T20:40:22.678Z,100766.70
2018-11-23T20:42:52.007Z,100768.61
2018-11-23T20:45:21.070Z,100774.57
2018-11-23T20:47:50.196Z,100761.83
2018-11-23T20:50:19.491Z,100752.86
2018-11-23T20:52:48.545Z,100758.55
2018-11-23T20:55:20.535Z,100756.69
2018-11-23T20:57:49.678Z,100759.95
2018-11-23T21:00:20.606Z,100759.68
2018-11-23T21:02:50.621Z,100765.64
2018-11-23T21:05:21.950Z,100764.55
2018-11-23T21:07:51.112Z,100775.41
2018-11-23T21:10:24.076Z,100780.84
2018-11-23T21:12:53.370Z,100783.55
2018-11-23T21:15:30.203Z,100785.97
2018-11-23T21:18:01.598Z,100778.10
2018-11-23T21:20:29.623Z,100782.17
2018-11-23T21:22:58.675Z,100769.68
2018-11-23T21:25:27.790Z,100772.11
2018-11-23T21:27:57.473Z,100764.21
2018-11-23T21:30:26.693Z,100771.50
2018-11-23T21:32:56.649Z,100757.36
2018-11-23T21:35:26.119Z,100765.20
2018-11-23T21:37:55.259Z,100763.86
2018-11-23T21:40:24.506Z,100735.36
2018-11-23T21:42:53.661Z,100730.20
2018-11-23T21:45:23.449Z,100724.22
2018-11-23T21:47:53.397Z,100730.73
2018-11-23T21:50:25.424Z,100722.86
2018-11-23T21:52:51.583Z,100703.32
2018-11-23T21:55:23.665Z,100717.95
2018-11-23T21:57:53.436Z,100711.70
2018-11-23T22:00:23.357Z,100707.34
2018-11-23T22:02:52.410Z,100724.17
2018-11-23T22:05:21.560Z,100727.95
2018-11-23T22:07:50.543Z,100739.89
2018-11-23T22:10:20.277Z,100746.94
2018-11-23T22:12:49.358Z,100755.30
2018-11-23T22:15:21.104Z,100772.93
2018-11-23T22:17:50.819Z,100779.45
2018-11-23T22:20:20.954Z,100771.05
2018-11-23T22:22:49.927Z,100778.36
2018-11-23T22:25:20.043Z,100781.06
2018-11-23T22:27:49.240Z,100786.19
2018-11-23T22:30:21.472Z,100779.98
2018-11-23T22:32:50.461Z,100793.80
2018-11-23T22:35:19.509Z,100786.72
2018-11-23T22:37:48.538Z,100788.34
2018-11-23T22:40:18.681Z,100786.73
2018-11-23T22:42:48.722Z,100794.56
2018-11-23T22:45:18.120Z,100788.88
2018-11-23T22:47:47.807Z,100792.65
2018-11-23T22:50:18.093Z,100795.09
2018-11-23T22:52:47.801Z,100797.80
2018-11-23T22:55:17.110Z,100791.83
2018-11-23T22:57:46.219Z,100800.75
2018-11-23T23:00:23.811Z,100788.55
2018-11-23T23:02:52.804Z,100783.66
2018-11-23T23:05:23.091Z,100785.02
2018-11-23T23:07:52.137Z,100772.52
2018-11-23T23:10:21.186Z,100764.39
2018-11-23T23:12:50.380Z,100775.23
2018-11-23T23:15:19.408Z,100771.17
2018-11-23T23:17:48.431Z,100779.56
2018-11-23T23:20:34.277Z,100774.41
2018-11-23T23:23:16.492Z,100774.67
2018-11-23T23:26:04.859Z,100770.61
2018-11-23T23:28:47.864Z,100766.25
2018-11-23T23:31:35.863Z,100764.89
2018-11-23T23:34:21.920Z,100766.25
2018-11-23T23:36:52.116Z,100775.47
2018-11-23T23:39:39.311Z,100767.33
2018-11-23T23:42:24.448Z,100765.45
2018-11-23T23:45:12.915Z,100768.98
2018-11-23T23:47:59.802Z,100778.73
2018-11-23T23:50:50.016Z,100778.73
2018-11-23T23:53:37.045Z,100787.43
2018-11-23T23:56:11.645Z,100785.25
2018-11-23T23:58:50.713Z,100784.95
